createdAt,value
2023-05-02T00:01:16.795Z,75.05
2023-05-02T00:03:43.765Z,75.63
2023-05-02T00:06:11.370Z,75.35
2023-05-02T00:08:39.544Z,75.78
2023-05-02T00:11:06.169Z,74.83
2023-05-02T00:13:32.756Z,75.53
2023-05-02T00:15:59.365Z,75.14
2023-05-02T00:18:25.991Z,73.54
2023-05-02T00:20:52.624Z,77.22
2023-05-02T00:23:19.232Z,75.40
2023-05-02T00:25:47.268Z,75.65
2023-05-02T00:28:13.950Z,75.32
2023-05-02T00:30:43.566Z,75.15
2023-05-02T00:33:10.680Z,74.40
2023-05-02T00:35:37.277Z,75.25
2023-05-02T00:38:03.861Z,74.76
2023-05-02T00:40:31.629Z,73.79
2023-05-02T00:42:59.591Z,74.65
2023-05-02T00:45:26.341Z,74.53
2023-05-02T00:47:53.046Z,74.64
2023-05-02T00:50:19.706Z,74.57
2023-05-02T00:52:47.118Z,73.52
2023-05-02T00:55:13.779Z,73.52
2023-05-02T00:57:40.549Z,74.75
2023-05-02T01:00:12.669Z,74.61
2023-05-02T01:02:49.227Z,75.14
2023-05-02T01:05:21.027Z,75.16
2023-05-02T01:08:01.007Z,74.98
2023-05-02T01:10:41.967Z,75.15
2023-05-02T01:13:12.203Z,75.21
2023-05-02T01:15:44.724Z,74.88
2023-05-02T01:18:13.518Z,75.05
2023-05-02T01:20:43.651Z,75.08
2023-05-02T01:23:17.406Z,74.54
2023-05-02T01:25:58.869Z,74.47
2023-05-02T01:28:32.324Z,74.99
2023-05-02T01:31:02.700Z,75.65
2023-05-02T01:33:31.848Z,75.59
2023-05-02T01:36:01.855Z,75.63
2023-05-02T01:38:30.292Z,74.83
2023-05-02T01:41:03.307Z,74.49
2023-05-02T01:43:32.723Z,75.79
2023-05-02T01:46:04.338Z,75.43
2023-05-02T01:48:32.403Z,75.78
2023-05-02T01:51:00.052Z,74.95
2023-05-02T01:53:29.695Z,76.21
2023-05-02T01:55:57.290Z,77.19
2023-05-02T01:58:27.342Z,82.34
2023-05-02T02:00:56.288Z,76.81
2023-05-02T02:03:24.964Z,76.71
2023-05-02T02:05:53.225Z,75.94
2023-05-02T02:08:19.794Z,75.98
2023-05-02T02:10:53.931Z,76.11
2023-05-02T02:13:27.693Z,77.89
2023-05-02T02:15:59.463Z,77.16
2023-05-02T02:18:29.392Z,75.93
2023-05-02T02:20:58.935Z,75.83
2023-05-02T02:23:28.127Z,75.55
2023-05-02T02:25:57.032Z,75.41
2023-05-02T02:28:23.848Z,74.76
2023-05-02T02:30:50.775Z,75.10
2023-05-02T02:33:17.893Z,75.71
2023-05-02T02:35:53.748Z,75.68
2023-05-02T02:38:31.771Z,75.46
2023-05-02T02:41:06.525Z,75.25
2023-05-02T02:43:43.201Z,74.89
2023-05-02T02:46:17.216Z,75.64
2023-05-02T02:48:53.782Z,74.91
2023-05-02T02:51:28.894Z,75.67
2023-05-02T02:54:15.376Z,75.20
2023-05-02T02:56:47.810Z,74.44
2023-05-02T02:59:20.159Z,74.45
2023-05-02T03:01:55.535Z,74.97
2023-05-02T03:04:23.753Z,73.58
2023-05-02T03:06:51.824Z,75.24
2023-05-02T03:09:18.821Z,75.35
2023-05-02T03:11:48.125Z,75.71
2023-05-02T03:14:14.737Z,75.56
2023-05-02T03:16:41.848Z,75.07
2023-05-02T03:19:08.744Z,75.21
2023-05-02T03:21:35.514Z,75.43
2023-05-02T03:24:04.704Z,74.97
2023-05-02T03:26:31.350Z,74.39
2023-05-02T03:28:58.057Z,76.06
2023-05-02T03:31:26.420Z,75.64
2023-05-02T03:33:54.402Z,75.10
2023-05-02T03:36:21.070Z,75.38
2023-05-02T03:38:47.635Z,75.37
2023-05-02T03:41:15.536Z,74.78
2023-05-02T03:43:42.222Z,75.14
2023-05-02T03:46:09.667Z,74.78
2023-05-02T03:48:36.716Z,74.94
2023-05-02T03:51:04.924Z,74.91
2023-05-02T03:53:31.777Z,75.24
2023-05-02T03:55:58.767Z,74.79
2023-05-02T03:58:27.202Z,75.25
2023-05-02T04:00:54.334Z,75.31
2023-05-02T04:03:21.766Z,74.63
2023-05-02T04:05:48.583Z,75.21
2023-05-02T04:08:15.293Z,74.58
2023-05-02T04:10:41.909Z,74.87
2023-05-02T04:13:08.589Z,75.50
2023-05-02T04:15:37.667Z,82.58
2023-05-02T04:18:04.653Z,78.23
2023-05-02T04:20:31.623Z,76.33
2023-05-02T04:22:58.292Z,75.62
2023-05-02T04:25:24.895Z,75.30
2023-05-02T04:27:51.579Z,74.93
2023-05-02T04:30:18.331Z,74.88
2023-05-02T04:32:47.105Z,75.17
2023-05-02T04:35:15.448Z,74.95
2023-05-02T04:37:42.144Z,75.55
2023-05-02T04:40:09.765Z,75.92
2023-05-02T04:42:36.354Z,75.26
2023-05-02T04:45:03.138Z,74.32
2023-05-02T04:47:29.854Z,75.11
2023-05-02T04:49:58.229Z,74.34
2023-05-02T04:52:25.313Z,75.13
2023-05-02T04:54:52.355Z,74.54
2023-05-02T04:57:19.989Z,75.16
2023-05-02T04:59:47.876Z,75.07
2023-05-02T05:02:14.535Z,75.16
2023-05-02T05:04:41.224Z,75.29
2023-05-02T05:07:09.171Z,75.79
2023-05-02T05:09:35.782Z,75.08
2023-05-02T05:12:02.528Z,74.75
2023-05-02T05:14:29.173Z,75.18
2023-05-02T05:16:55.716Z,74.88
2023-05-02T05:19:22.373Z,76.20
2023-05-02T05:21:48.996Z,76.38
2023-05-02T05:24:16.980Z,75.44
2023-05-02T05:26:43.564Z,74.91
2023-05-02T05:29:10.206Z,78.13
2023-05-02T05:31:37.154Z,76.33
2023-05-02T05:34:04.597Z,75.63
2023-05-02T05:36:32.366Z,74.74
2023-05-02T05:38:58.985Z,75.04
2023-05-02T05:41:27.012Z,75.06
2023-05-02T05:43:53.641Z,74.89
2023-05-02T05:46:20.552Z,75.79
2023-05-02T05:48:47.186Z,76.03
2023-05-02T05:51:13.803Z,75.49
2023-05-02T05:53:40.413Z,75.36
2023-05-02T05:56:10.120Z,75.76
2023-05-02T05:58:38.486Z,81.36
2023-05-02T06:01:05.442Z,78.31
2023-05-02T06:03:32.299Z,76.07
2023-05-02T06:05:59.982Z,76.53
2023-05-02T06:08:26.727Z,76.54
2023-05-02T06:10:53.316Z,75.60
2023-05-02T06:13:19.920Z,81.08
2023-05-02T06:15:47.847Z,77.24
2023-05-02T06:18:15.012Z,76.08
2023-05-02T06:20:41.740Z,76.99
2023-05-02T06:23:08.295Z,83.28
2023-05-02T06:25:37.636Z,79.16
2023-05-02T06:28:04.375Z,76.50
2023-05-02T06:30:30.945Z,77.26
2023-05-02T06:32:59.003Z,76.58
2023-05-02T06:35:25.831Z,75.97
2023-05-02T06:37:52.439Z,75.74
2023-05-02T06:40:19.192Z,80.44
2023-05-02T06:42:45.838Z,83.30
2023-05-02T06:45:12.474Z,85.33
2023-05-02T06:47:39.105Z,83.09
2023-05-02T06:50:08.725Z,84.90
2023-05-02T06:52:35.396Z,80.36
2023-05-02T06:55:02.006Z,81.76
2023-05-02T06:57:29.258Z,84.65
2023-05-02T06:59:56.143Z,81.29
2023-05-02T07:02:23.049Z,77.19
2023-05-02T07:04:49.743Z,77.20
2023-05-02T07:07:18.966Z,76.84
2023-05-02T07:09:45.927Z,76.50
2023-05-02T07:12:12.635Z,76.91
2023-05-02T07:14:39.451Z,79.31
2023-05-02T07:17:06.414Z,80.69
2023-05-02T07:19:33.306Z,82.00
2023-05-02T07:22:00.074Z,83.17
2023-05-02T07:24:28.384Z,78.70
2023-05-02T07:26:55.320Z,76.59
2023-05-02T07:29:21.954Z,76.50
2023-05-02T07:31:48.646Z,79.79
2023-05-02T07:34:15.642Z,82.19
2023-05-02T07:36:42.322Z,79.39
2023-05-02T07:39:09.032Z,81.43
2023-05-02T07:41:37.209Z,83.02
2023-05-02T07:44:04.233Z,84.19
2023-05-02T07:46:31.496Z,84.17
2023-05-02T07:48:58.348Z,85.31
2023-05-02T07:51:26.482Z,84.18
2023-05-02T07:53:54.459Z,82.46
2023-05-02T07:56:21.332Z,81.37
2023-05-02T07:58:51.541Z,81.63
2023-05-02T08:01:18.477Z,81.89
2023-05-02T08:03:45.644Z,79.77
2023-05-02T08:06:13.251Z,78.59
2023-05-02T08:08:40.009Z,78.18
2023-05-02T08:11:06.930Z,77.32
2023-05-02T08:13:33.584Z,78.09
2023-05-02T08:16:02.722Z,77.08
2023-05-02T08:18:29.360Z,78.12
2023-05-02T08:20:58.525Z,78.54
2023-05-02T08:23:25.203Z,79.26
2023-05-02T08:25:51.970Z,78.98
2023-05-02T08:28:19.209Z,77.63
2023-05-02T08:30:45.955Z,77.71
2023-05-02T08:33:13.878Z,78.91
2023-05-02T08:35:41.077Z,77.66
2023-05-02T08:38:07.842Z,77.30
2023-05-02T08:40:42.285Z,77.67
2023-05-02T08:43:10.887Z,75.20
2023-05-02T08:45:40.302Z,74.23
2023-05-02T08:48:10.391Z,74.45
2023-05-02T08:50:39.810Z,77.43
2023-05-02T08:53:07.303Z,75.47
2023-05-02T08:55:36.446Z,75.46
2023-05-02T08:58:04.283Z,74.23
2023-05-02T09:00:31.503Z,74.16
2023-05-02T09:03:11.570Z,72.69
2023-05-02T09:05:41.613Z,75.41
2023-05-02T09:08:08.989Z,71.63
2023-05-02T09:10:39.091Z,72.32
2023-05-02T09:13:29.434Z,73.45
2023-05-02T09:16:00.214Z,70.77
2023-05-02T09:18:31.775Z,70.55
2023-05-02T09:21:01.268Z,70.89
2023-05-02T09:23:39.030Z,72.22
2023-05-02T09:26:17.079Z,70.35
2023-05-02T09:28:45.370Z,72.88
2023-05-02T09:31:15.514Z,67.63
2023-05-02T09:33:46.031Z,72.99
2023-05-02T09:36:16.016Z,74.68
2023-05-02T09:38:43.232Z,76.10
2023-05-02T09:41:10.290Z,75.97
2023-05-02T09:43:37.387Z,73.33
2023-05-02T09:46:06.710Z,75.94
2023-05-02T09:48:52.234Z,76.65
2023-05-02T09:51:21.292Z,77.59
2023-05-02T09:53:48.428Z,77.66
2023-05-02T09:56:15.670Z,79.11
2023-05-02T09:58:42.569Z,72.89
2023-05-02T10:01:14.986Z,78.73
2023-05-02T10:03:42.168Z,77.66
2023-05-02T10:06:09.487Z,76.55
2023-05-02T10:08:39.665Z,77.95
2023-05-02T10:11:08.705Z,78.14
2023-05-02T10:13:39.317Z,79.00
2023-05-02T10:16:07.305Z,78.98
2023-05-02T10:18:41.327Z,78.51
2023-05-02T10:21:10.906Z,79.01
2023-05-02T10:23:42.483Z,80.41
2023-05-02T10:26:09.459Z,75.16
2023-05-02T10:28:37.187Z,74.84
2023-05-02T10:31:06.517Z,76.46
2023-05-02T10:33:35.445Z,78.84
2023-05-02T10:36:02.416Z,78.28
2023-05-02T10:38:29.573Z,78.33
2023-05-02T10:41:01.667Z,75.27
2023-05-02T10:43:33.977Z,77.49
2023-05-02T10:46:02.004Z,77.60
2023-05-02T10:48:28.707Z,78.29
2023-05-02T10:50:56.561Z,77.87
2023-05-02T10:53:34.720Z,75.36
2023-05-02T10:56:21.585Z,77.23
2023-05-02T10:58:49.557Z,77.53
2023-05-02T11:01:37.876Z,75.41
2023-05-02T11:04:06.277Z,74.45
2023-05-02T11:06:34.904Z,74.33
2023-05-02T11:09:33.289Z,76.27
2023-05-02T11:12:02.107Z,77.35
2023-05-02T11:14:48.368Z,78.55
2023-05-02T11:17:15.499Z,75.57
2023-05-02T11:20:28.081Z,73.82
2023-05-02T11:23:25.779Z,74.02
2023-05-02T11:25:54.690Z,75.33
2023-05-02T11:28:44.526Z,75.93
2023-05-02T11:31:43.650Z,74.05
2023-05-02T11:34:11.068Z,74.39
2023-05-02T11:36:37.868Z,73.28
2023-05-02T11:39:07.909Z,72.42
2023-05-02T11:41:41.437Z,73.83
2023-05-02T11:44:09.675Z,77.73
2023-05-02T11:46:37.236Z,78.06
2023-05-02T11:49:06.183Z,77.29
2023-05-02T11:51:33.787Z,78.62
2023-05-02T11:54:00.518Z,78.27
2023-05-02T11:56:27.249Z,77.60
2023-05-02T11:58:59.697Z,76.77
2023-05-02T12:01:28.295Z,79.07
2023-05-02T12:04:02.479Z,78.98
2023-05-02T12:06:29.248Z,76.14
2023-05-02T12:09:07.126Z,74.25
2023-05-02T12:11:33.708Z,75.98
2023-05-02T12:14:00.368Z,74.15
2023-05-02T12:16:28.702Z,78.63
2023-05-02T12:18:58.323Z,76.87
2023-05-02T12:21:24.938Z,77.20
2023-05-02T12:23:51.685Z,76.95
2023-05-02T12:26:19.712Z,78.16
2023-05-02T12:28:50.856Z,78.25
2023-05-02T12:31:17.794Z,74.00
2023-05-02T12:33:48.327Z,78.17
2023-05-02T12:36:14.987Z,76.63
2023-05-02T12:38:49.133Z,77.41
2023-05-02T12:41:15.886Z,77.18
2023-05-02T12:43:47.510Z,78.09
2023-05-02T12:46:14.116Z,78.80
2023-05-02T12:48:40.860Z,76.56
2023-05-02T12:51:20.782Z,78.76
2023-05-02T12:53:47.581Z,78.81
2023-05-02T12:56:14.317Z,78.79
2023-05-02T12:58:43.035Z,78.47
2023-05-02T13:01:10.657Z,77.89
2023-05-02T13:03:37.706Z,76.96
2023-05-02T13:06:04.903Z,78.09
2023-05-02T13:08:34.260Z,77.62
2023-05-02T13:11:01.067Z,77.78
2023-05-02T13:13:27.986Z,77.26
2023-05-02T13:15:54.632Z,76.63
2023-05-02T13:18:21.284Z,76.76
2023-05-02T13:20:47.909Z,76.36
2023-05-02T13:23:16.801Z,76.75
2023-05-02T13:25:44.832Z,77.48
2023-05-02T13:28:11.418Z,76.40
2023-05-02T13:30:38.115Z,76.76
2023-05-02T13:33:04.815Z,75.83
2023-05-02T13:35:33.222Z,77.26
2023-05-02T13:38:00.754Z,75.41
2023-05-02T13:40:27.798Z,74.77
2023-05-02T13:42:55.733Z,69.64
2023-05-02T13:45:22.445Z,76.57
2023-05-02T13:47:49.142Z,69.40
2023-05-02T13:50:16.021Z,69.19
2023-05-02T13:52:42.649Z,70.29
2023-05-02T13:55:09.746Z,72.26
2023-05-02T13:57:36.349Z,72.63
2023-05-02T14:00:05.512Z,72.34
2023-05-02T14:02:32.321Z,72.79
2023-05-02T14:04:59.057Z,72.30
2023-05-02T14:07:25.730Z,72.70
2023-05-02T14:09:52.359Z,73.15
2023-05-02T14:12:18.989Z,72.63
2023-05-02T14:14:45.605Z,71.59
2023-05-02T14:17:13.990Z,72.93
2023-05-02T14:19:40.736Z,76.22
2023-05-02T14:22:07.411Z,74.28
2023-05-02T14:24:34.121Z,77.45
2023-05-02T14:27:01.469Z,78.12
2023-05-02T14:29:28.131Z,77.93
2023-05-02T14:31:54.737Z,77.61
2023-05-02T14:34:26.790Z,76.68
2023-05-02T14:36:53.768Z,76.22
2023-05-02T14:39:21.154Z,76.30
2023-05-02T14:41:48.093Z,73.55
2023-05-02T14:44:14.760Z,76.35
2023-05-02T14:46:41.495Z,75.97
2023-05-02T14:49:08.173Z,76.54
2023-05-02T14:51:37.319Z,76.56
2023-05-02T14:54:04.489Z,76.42
2023-05-02T14:56:31.206Z,76.38
2023-05-02T14:58:57.896Z,75.72
2023-05-02T15:01:24.821Z,70.98
2023-05-02T15:04:05.903Z,73.25
2023-05-02T15:06:34.233Z,74.02
2023-05-02T15:09:02.438Z,72.59
2023-05-02T15:11:29.058Z,73.52
2023-05-02T15:13:57.523Z,72.87
2023-05-02T15:16:27.104Z,71.71
2023-05-02T15:18:54.281Z,72.05
2023-05-02T15:21:20.991Z,72.73
2023-05-02T15:23:47.754Z,72.04
2023-05-02T15:26:15.750Z,72.65
2023-05-02T15:28:42.461Z,71.59
2023-05-02T15:31:09.131Z,71.53
2023-05-02T15:33:35.920Z,72.75
2023-05-02T15:36:02.640Z,72.42
2023-05-02T15:38:29.338Z,71.23
2023-05-02T15:40:56.649Z,72.49
2023-05-02T15:43:24.837Z,75.03
2023-05-02T15:45:52.144Z,76.34
2023-05-02T15:48:19.162Z,70.73
2023-05-02T15:50:47.119Z,70.75
2023-05-02T15:53:14.778Z,74.11
2023-05-02T15:55:41.581Z,76.25
2023-05-02T15:58:09.202Z,76.82
2023-05-02T16:00:37.129Z,74.52
2023-05-02T16:03:04.233Z,70.57
2023-05-02T16:05:31.027Z,75.60
2023-05-02T16:07:57.601Z,77.14
2023-05-02T16:10:24.210Z,76.20
2023-05-02T16:12:50.811Z,71.46
2023-05-02T16:15:17.527Z,72.62
2023-05-02T16:17:45.662Z,71.40
2023-05-02T16:20:12.957Z,72.71
2023-05-02T16:22:42.309Z,72.87
2023-05-02T16:25:09.061Z,71.27
2023-05-02T16:27:35.878Z,72.98
2023-05-02T16:30:02.773Z,73.45
2023-05-02T16:32:29.695Z,72.76
2023-05-02T16:34:57.650Z,74.80
2023-05-02T16:37:24.410Z,73.54
2023-05-02T16:39:51.064Z,72.95
2023-05-02T16:42:17.667Z,73.09
2023-05-02T16:44:44.464Z,72.73
2023-05-02T16:47:11.288Z,74.77
2023-05-02T16:49:39.283Z,75.40
2023-05-02T16:52:07.418Z,75.55
2023-05-02T16:54:34.034Z,74.36
2023-05-02T16:57:02.647Z,74.25
2023-05-02T16:59:29.282Z,75.37
2023-05-02T17:01:57.075Z,74.86
2023-05-02T17:04:23.730Z,74.77
2023-05-02T17:06:50.456Z,74.39
2023-05-02T17:09:18.505Z,74.96
2023-05-02T17:11:45.786Z,74.59
2023-05-02T17:14:13.795Z,74.11
2023-05-02T17:16:41.038Z,75.87
2023-05-02T17:19:07.806Z,76.18
2023-05-02T17:21:35.700Z,75.58
2023-05-02T17:24:02.612Z,76.69
2023-05-02T17:26:30.654Z,76.97
2023-05-02T17:28:57.290Z,76.34
2023-05-02T17:31:24.081Z,75.20
2023-05-02T17:33:50.936Z,75.36
2023-05-02T17:36:17.570Z,76.11
2023-05-02T17:38:45.115Z,76.06
2023-05-02T17:41:12.194Z,76.02
2023-05-02T17:43:42.275Z,75.75
2023-05-02T17:46:09.618Z,74.20
2023-05-02T17:48:36.945Z,76.38
2023-05-02T17:51:04.326Z,77.33
2023-05-02T17:53:31.396Z,76.50
2023-05-02T17:55:58.081Z,75.91
2023-05-02T17:58:24.697Z,75.82
2023-05-02T18:00:52.741Z,74.15
2023-05-02T18:03:19.514Z,75.99
2023-05-02T18:05:47.658Z,77.53
2023-05-02T18:08:14.416Z,77.17
2023-05-02T18:10:41.865Z,77.20
2023-05-02T18:13:08.912Z,76.13
2023-05-02T18:15:35.970Z,76.48
2023-05-02T18:18:04.053Z,76.24
2023-05-02T18:20:30.684Z,75.77
2023-05-02T18:22:59.057Z,76.06
2023-05-02T18:25:26.110Z,76.08
2023-05-02T18:27:52.793Z,76.18
2023-05-02T18:30:20.111Z,73.56
2023-05-02T18:32:46.869Z,76.62
2023-05-02T18:35:14.857Z,78.05
2023-05-02T18:37:41.556Z,78.73
2023-05-02T18:40:09.114Z,76.81
2023-05-02T18:42:35.979Z,74.28
2023-05-02T18:45:03.980Z,76.43
2023-05-02T18:47:31.517Z,76.93
2023-05-02T18:49:59.698Z,76.59
2023-05-02T18:52:29.230Z,76.19
2023-05-02T18:54:55.901Z,75.94
2023-05-02T18:57:22.533Z,76.00
2023-05-02T18:59:49.147Z,75.65
2023-05-02T19:02:16.129Z,75.60
2023-05-02T19:04:42.838Z,75.65
2023-05-02T19:07:10.682Z,75.92
2023-05-02T19:09:38.659Z,75.30
2023-05-02T19:12:05.937Z,75.55
2023-05-02T19:14:36.400Z,75.27
2023-05-02T19:17:04.915Z,75.58
2023-05-02T19:19:32.238Z,75.43
2023-05-02T19:21:58.828Z,75.46
2023-05-02T19:24:25.564Z,75.40
2023-05-02T19:26:53.659Z,75.01
2023-05-02T19:29:20.616Z,74.92
2023-05-02T19:31:47.295Z,75.48
2023-05-02T19:34:13.874Z,75.47
2023-05-02T19:36:40.575Z,75.16
2023-05-02T19:39:07.792Z,74.99
2023-05-02T19:41:34.528Z,75.31
2023-05-02T19:44:02.498Z,75.21
2023-05-02T19:46:30.186Z,75.43
2023-05-02T19:48:56.982Z,75.47
2023-05-02T19:51:25.643Z,75.25
2023-05-02T19:53:53.804Z,75.26
2023-05-02T19:56:25.197Z,75.34
2023-05-02T19:58:51.825Z,75.58
2023-05-02T20:01:19.868Z,75.31
2023-05-02T20:03:46.899Z,74.87
2023-05-02T20:06:14.468Z,75.04
2023-05-02T20:08:41.217Z,74.66
2023-05-02T20:11:07.824Z,76.37
2023-05-02T20:13:34.457Z,75.13
2023-05-02T20:16:01.134Z,75.04
2023-05-02T20:18:29.163Z,75.24
2023-05-02T20:20:56.509Z,75.08
2023-05-02T20:23:23.082Z,77.70
2023-05-02T20:25:49.704Z,81.19
2023-05-02T20:28:16.339Z,84.17
2023-05-02T20:30:44.112Z,85.54
2023-05-02T20:33:15.983Z,79.04
2023-05-02T20:35:45.266Z,78.91
2023-05-02T20:38:12.349Z,76.42
2023-05-02T20:40:39.942Z,75.79
2023-05-02T20:43:06.674Z,75.86
2023-05-02T20:45:33.507Z,75.70
2023-05-02T20:48:00.254Z,75.49
2023-05-02T20:50:27.176Z,75.55
2023-05-02T20:52:55.425Z,79.31
2023-05-02T20:55:23.014Z,76.07
2023-05-02T20:57:53.314Z,75.70
2023-05-02T21:00:22.687Z,75.47
2023-05-02T21:02:49.805Z,75.72
2023-05-02T21:05:16.753Z,75.35
2023-05-02T21:07:44.731Z,75.39
2023-05-02T21:10:12.899Z,75.36
2023-05-02T21:12:39.792Z,75.10
2023-05-02T21:15:07.582Z,75.36
2023-05-02T21:17:34.354Z,74.93
2023-05-02T21:20:01.359Z,73.99
2023-05-02T21:22:28.191Z,73.29
2023-05-02T21:24:54.833Z,75.69
2023-05-02T21:27:23.045Z,75.04
2023-05-02T21:29:49.850Z,75.03
2023-05-02T21:32:16.587Z,75.04
2023-05-02T21:34:43.275Z,75.20
2023-05-02T21:37:09.957Z,74.51
2023-05-02T21:39:38.049Z,74.74
2023-05-02T21:42:05.044Z,74.96
2023-05-02T21:44:33.060Z,81.04
2023-05-02T21:46:59.711Z,77.26
2023-05-02T21:49:28.915Z,74.93
2023-05-02T21:51:55.571Z,75.00
2023-05-02T21:54:22.189Z,74.31
2023-05-02T21:56:48.834Z,73.59
2023-05-02T21:59:15.426Z,74.21
2023-05-02T22:01:43.461Z,74.00
2023-05-02T22:04:10.102Z,72.30
2023-05-02T22:06:37.314Z,76.50
2023-05-02T22:09:04.957Z,75.20
2023-05-02T22:11:32.178Z,74.37
2023-05-02T22:13:58.773Z,76.64
2023-05-02T22:16:26.402Z,74.59
2023-05-02T22:18:54.489Z,76.10
2023-05-02T22:21:21.558Z,74.84
2023-05-02T22:23:48.309Z,74.41
2023-05-02T22:26:14.904Z,74.06
2023-05-02T22:28:41.710Z,74.78
2023-05-02T22:31:08.812Z,75.03
2023-05-02T22:33:35.548Z,74.46
2023-05-02T22:36:03.800Z,74.51
2023-05-02T22:38:30.507Z,75.23
2023-05-02T22:40:57.075Z,75.44
2023-05-02T22:43:23.763Z,80.01
2023-05-02T22:45:51.318Z,79.88
2023-05-02T22:48:18.172Z,75.91
2023-05-02T22:50:46.746Z,73.48
2023-05-02T22:53:14.749Z,73.41
2023-05-02T22:55:41.426Z,75.12
2023-05-02T22:58:08.037Z,74.73
2023-05-02T23:00:34.693Z,74.47
2023-05-02T23:03:01.535Z,74.40
2023-05-02T23:05:29.346Z,74.42
2023-05-02T23:07:56.060Z,71.13
2023-05-02T23:10:24.044Z,69.93
2023-05-02T23:12:50.666Z,71.17
2023-05-02T23:15:17.747Z,76.95
2023-05-02T23:17:44.543Z,74.77
2023-05-02T23:20:11.731Z,75.13
2023-05-02T23:22:43.887Z,75.01
2023-05-02T23:25:11.712Z,74.52
2023-05-02T23:27:39.732Z,71.07
2023-05-02T23:30:08.786Z,74.97
2023-05-02T23:32:36.631Z,75.23
2023-05-02T23:35:03.663Z,75.14
2023-05-02T23:37:30.421Z,75.28
2023-05-02T23:39:58.159Z,75.79
2023-05-02T23:42:24.842Z,75.49
2023-05-02T23:44:53.802Z,75.28
2023-05-02T23:47:22.811Z,75.00
2023-05-02T23:49:49.475Z,75.28
2023-05-02T23:52:16.082Z,75.67
2023-05-02T23:54:42.705Z,75.58
2023-05-02T23:57:09.564Z,75.06
2023-05-02T23:59:36.167Z,74.92
